PWSweather.com
Personal Weather Stations
Station Observations
WATERF01
WaterfordIE

WaterfordIE

Lat: 52.2412507, Lon: -7.1414691

Elevation: 65

Station Type: Davis Vantage Vue

www.waterfordweather.com

High Low Average
Temperature 49.7°F9.8°C 37.4°F3.0°C 46.3°F7.9°C
Dew Point 49.4°F9.7°C 37.1°F2.8°C 46.1°F7.8°C
Winds 23.0 mph 37.0 kmh Calm Calm 8.0 mph S12.9 kmh S
Wind Gusts 39.1 mph62.9 kmh -- 12.0 mph19.3 kmh
Humidity 100% 99% 99%
Pressure 29.97 in1014.9 mb 29.74 in1007.1 mb -
Precipitation 0.45 in11.4 mm - -
Hour Temp Dew Point Humidity Winds Wind Gusts Pressure Precip Precip Rate Daily Precip Total
12:00 AM 48.3°F9.1°C 48.3°F9.1°C 100% 15.0 mph SSE24.1 kmh SSE 21.9 mph35.2 kmh 29.85 in1010.8 mb - 0.01 in0.3 mm 0.01 in0.3 mm
12:10 AM 48.3°F9.1°C 48.3°F9.1°C 100% 18.4 mph SSE29.6 kmh SSE 25.3 mph40.7 kmh 29.84 in1010.5 mb - 0.00 in0.0 mm 0.01 in0.3 mm
12:20 AM 48.3°F9.1°C 48.3°F9.1°C 100% 19.6 mph S31.5 kmh S 25.3 mph40.7 kmh 29.84 in1010.5 mb - 0.01 in0.3 mm 0.01 in0.3 mm
12:30 AM 48.3°F9.1°C 48.3°F9.1°C 100% 17.3 mph SE27.8 kmh SE 35.7 mph57.5 kmh 29.84 in1010.5 mb - 0.01 in0.3 mm 0.02 in0.5 mm
12:40 AM 48.3°F9.1°C 48.3°F9.1°C 100% 18.4 mph SSE29.6 kmh SSE 25.3 mph40.7 kmh 29.83 in1010.2 mb - 0.02 in0.5 mm 0.03 in0.8 mm
12:50 AM 48.2°F9.0°C 48.2°F9.0°C 100% 17.3 mph S27.8 kmh S 27.6 mph44.4 kmh 29.83 in1010.2 mb - 0.02 in0.5 mm 0.04 in1.0 mm
01:00 AM 48.1°F8.9°C 48.1°F8.9°C 100% 16.1 mph SSE25.9 kmh SSE 27.6 mph44.4 kmh 29.83 in1010.2 mb - 0.01 in0.3 mm 0.05 in1.3 mm
01:10 AM 48.1°F8.9°C 48.1°F8.9°C 100% 18.4 mph SSE29.6 kmh SSE 27.6 mph44.4 kmh 29.83 in1010.2 mb - 0.02 in0.5 mm 0.07 in1.8 mm
01:20 AM 48.0°F8.9°C 48.0°F8.9°C 100% 16.1 mph SSE25.9 kmh SSE 27.6 mph44.4 kmh 29.82 in1009.8 mb - 0.01 in0.3 mm 0.07 in1.8 mm
01:30 AM 47.9°F8.8°C 47.9°F8.8°C 100% 20.7 mph SE33.3 kmh SE 25.3 mph40.7 kmh 29.82 in1009.8 mb - 0.01 in0.3 mm 0.08 in2.0 mm
01:40 AM 47.9°F8.8°C 47.9°F8.8°C 100% 17.3 mph SE27.8 kmh SE 25.3 mph40.7 kmh 29.82 in1009.8 mb - 0.01 in0.3 mm 0.09 in2.3 mm
01:50 AM 47.9°F8.8°C 47.9°F8.8°C 100% 18.4 mph S29.6 kmh S 25.3 mph40.7 kmh 29.82 in1009.8 mb - 0.01 in0.3 mm 0.10 in2.5 mm
02:00 AM 47.9°F8.8°C 47.9°F8.8°C 100% 19.6 mph SE31.5 kmh SE 28.8 mph46.3 kmh 29.81 in1009.5 mb - 0.01 in0.3 mm 0.11 in2.8 mm
02:10 AM 47.7°F8.7°C 47.7°F8.7°C 100% 15.0 mph SSE24.1 kmh SSE 23.0 mph37.0 kmh 29.81 in1009.5 mb - 0.01 in0.3 mm 0.12 in3.0 mm
02:20 AM 47.7°F8.7°C 47.7°F8.7°C 100% 16.1 mph SSE25.9 kmh SSE 21.9 mph35.2 kmh 29.81 in1009.5 mb - 0.01 in0.3 mm 0.13 in3.3 mm
02:30 AM 47.7°F8.7°C 47.7°F8.7°C 100% 18.4 mph SSE29.6 kmh SSE 26.5 mph42.6 kmh 29.80 in1009.1 mb - 0.01 in0.3 mm 0.14 in3.6 mm
02:40 AM 47.7°F8.7°C 47.7°F8.7°C 100% 19.6 mph SE31.5 kmh SE 27.6 mph44.4 kmh 29.80 in1009.1 mb - 0.02 in0.5 mm 0.16 in4.1 mm
02:50 AM 47.7°F8.7°C 47.7°F8.7°C 100% 19.6 mph SE31.5 kmh SE 29.9 mph48.1 kmh 29.80 in1009.1 mb - 0.02 in0.5 mm 0.17 in4.3 mm
03:00 AM 47.6°F8.7°C 47.6°F8.7°C 100% 23.0 mph SE37.0 kmh SE 35.7 mph57.5 kmh 29.79 in1008.8 mb - 0.01 in0.3 mm 0.18 in4.6 mm
03:10 AM 47.6°F8.7°C 47.6°F8.7°C 100% 20.7 mph SE33.3 kmh SE 33.4 mph53.8 kmh 29.79 in1008.8 mb - 0.01 in0.3 mm 0.19 in4.8 mm
03:20 AM 47.6°F8.7°C 47.6°F8.7°C 100% 17.3 mph SSE27.8 kmh SSE 26.5 mph42.6 kmh 29.78 in1008.5 mb - 0.01 in0.3 mm 0.20 in5.1 mm
03:30 AM 47.7°F8.7°C 47.7°F8.7°C 100% 23.0 mph SE37.0 kmh SE 39.1 mph62.9 kmh 29.78 in1008.5 mb - 0.01 in0.3 mm 0.21 in5.3 mm
03:40 AM 47.6°F8.7°C 47.6°F8.7°C 100% 17.3 mph SE27.8 kmh SE 27.6 mph44.4 kmh 29.78 in1008.5 mb - 0.01 in0.3 mm 0.22 in5.6 mm
03:50 AM 47.6°F8.7°C 47.6°F8.7°C 100% 17.3 mph SSE27.8 kmh SSE 27.6 mph44.4 kmh 29.77 in1008.1 mb - 0.01 in0.3 mm 0.22 in5.6 mm
04:00 AM 47.5°F8.6°C 47.5°F8.6°C 100% 20.7 mph SE33.3 kmh SE 29.9 mph48.1 kmh 29.77 in1008.1 mb - 0.01 in0.3 mm 0.23 in5.8 mm
04:10 AM 47.5°F8.6°C 47.5°F8.6°C 100% 15.0 mph SE24.1 kmh SE 20.7 mph33.3 kmh 29.77 in1008.1 mb - 0.02 in0.5 mm 0.25 in6.4 mm
04:20 AM 47.5°F8.6°C 47.5°F8.6°C 100% 18.4 mph SSE29.6 kmh SSE 27.6 mph44.4 kmh 29.76 in1007.8 mb - 0.01 in0.3 mm 0.26 in6.6 mm
04:30 AM 47.5°F8.6°C 47.5°F8.6°C 100% 16.1 mph SSE25.9 kmh SSE 27.6 mph44.4 kmh 29.76 in1007.8 mb - 0.02 in0.5 mm 0.28 in7.1 mm
04:40 AM 47.5°F8.6°C 47.5°F8.6°C 100% 21.9 mph SSE35.2 kmh SSE 29.9 mph48.1 kmh 29.75 in1007.5 mb - 0.01 in0.3 mm 0.29 in7.4 mm
04:50 AM 47.5°F8.6°C 47.5°F8.6°C 100% 21.9 mph SE35.2 kmh SE 33.4 mph53.8 kmh 29.75 in1007.5 mb - 0.02 in0.5 mm 0.31 in7.9 mm
05:00 AM 47.5°F8.6°C 47.5°F8.6°C 100% 21.9 mph SSE35.2 kmh SSE 29.9 mph48.1 kmh 29.75 in1007.5 mb - 0.01 in0.3 mm 0.32 in8.1 mm
05:10 AM 47.5°F8.6°C 47.5°F8.6°C 100% 21.9 mph SE35.2 kmh SE 35.7 mph57.5 kmh 29.75 in1007.5 mb - 0.01 in0.3 mm 0.33 in8.4 mm
05:20 AM 47.6°F8.7°C 47.6°F8.7°C 100% 20.7 mph SSE33.3 kmh SSE 29.9 mph48.1 kmh 29.75 in1007.5 mb - 0.01 in0.3 mm 0.33 in8.4 mm
05:30 AM 47.7°F8.7°C 47.7°F8.7°C 100% 21.9 mph SSE35.2 kmh SSE 29.9 mph48.1 kmh 29.75 in1007.5 mb - 0.01 in0.3 mm 0.34 in8.6 mm
05:40 AM 47.7°F8.7°C 47.7°F8.7°C 100% 16.1 mph S25.9 kmh S 28.8 mph46.3 kmh 29.75 in1007.5 mb - 0.01 in0.3 mm 0.35 in8.9 mm
05:50 AM 47.7°F8.7°C 47.7°F8.7°C 100% 19.6 mph SE31.5 kmh SE 27.6 mph44.4 kmh 29.74 in1007.1 mb - 0.01 in0.3 mm 0.36 in9.1 mm
06:00 AM 47.7°F8.7°C 47.7°F8.7°C 100% 23.0 mph SE37.0 kmh SE 29.9 mph48.1 kmh 29.74 in1007.1 mb - 0.01 in0.3 mm 0.37 in9.4 mm
06:10 AM 47.7°F8.7°C 47.7°F8.7°C 100% 17.3 mph SSE27.8 kmh SSE 26.5 mph42.6 kmh 29.74 in1007.1 mb - 0.01 in0.3 mm 0.38 in9.7 mm
06:20 AM 47.7°F8.7°C 47.7°F8.7°C 100% 17.3 mph SSE27.8 kmh SSE 29.9 mph48.1 kmh 29.74 in1007.1 mb - 0.00 in0.0 mm 0.38 in9.7 mm
06:30 AM 47.8°F8.8°C 47.8°F8.8°C 100% 17.3 mph SSE27.8 kmh SSE 27.6 mph44.4 kmh 29.74 in1007.1 mb - 0.01 in0.3 mm 0.39 in9.9 mm
06:40 AM 47.8°F8.8°C 47.8°F8.8°C 100% 18.4 mph SSE29.6 kmh SSE 25.3 mph40.7 kmh 29.74 in1007.1 mb - 0.01 in0.3 mm 0.40 in10.2 mm
06:50 AM 47.9°F8.8°C 47.9°F8.8°C 100% 17.3 mph S27.8 kmh S 29.9 mph48.1 kmh 29.74 in1007.1 mb - 0.01 in0.3 mm 0.41 in10.4 mm
07:00 AM 48.0°F8.9°C 48.0°F8.9°C 100% 10.4 mph S16.7 kmh S 19.6 mph31.5 kmh 29.75 in1007.5 mb - 0.01 in0.3 mm 0.42 in10.7 mm
07:10 AM 48.0°F8.9°C 48.0°F8.9°C 100% 10.4 mph S16.7 kmh S 16.1 mph25.9 kmh 29.75 in1007.5 mb - 0.00 in0.0 mm 0.42 in10.7 mm
07:20 AM 48.0°F8.9°C 48.0°F8.9°C 100% 10.4 mph S16.7 kmh S 13.8 mph22.2 kmh 29.75 in1007.5 mb - 0.00 in0.0 mm 0.42 in10.7 mm
07:30 AM 47.8°F8.8°C 47.8°F8.8°C 100% 8.1 mph S13.0 kmh S 11.5 mph18.5 kmh 29.76 in1007.8 mb - 0.00 in0.0 mm 0.42 in10.7 mm
07:40 AM 47.5°F8.6°C 47.5°F8.6°C 100% 6.9 mph S11.1 kmh S 8.1 mph13.0 kmh 29.76 in1007.8 mb - 0.00 in0.0 mm 0.42 in10.7 mm
07:50 AM 47.2°F8.4°C 47.2°F8.4°C 100% 3.5 mph S5.6 kmh S 5.8 mph9.3 kmh 29.76 in1007.8 mb - 0.00 in0.0 mm 0.42 in10.7 mm
08:00 AM 47.1°F8.4°C 47.1°F8.4°C 100% 3.5 mph S5.6 kmh S 5.8 mph9.3 kmh 29.76 in1007.8 mb - 0.00 in0.0 mm 0.42 in10.7 mm
08:10 AM 47.1°F8.4°C 47.1°F8.4°C 100% 5.8 mph S9.3 kmh S 8.1 mph13.0 kmh 29.76 in1007.8 mb - 0.00 in0.0 mm 0.42 in10.7 mm
08:20 AM 47.1°F8.4°C 47.1°F8.4°C 100% 4.6 mph S7.4 kmh S 6.9 mph11.1 kmh 29.77 in1008.1 mb - 0.00 in0.0 mm 0.42 in10.7 mm
08:30 AM 46.8°F8.2°C 46.8°F8.2°C 100% 4.6 mph SE7.4 kmh SE 6.9 mph11.1 kmh 29.77 in1008.1 mb - 0.00 in0.0 mm 0.42 in10.7 mm
08:40 AM 46.6°F8.1°C 46.6°F8.1°C 100% 5.8 mph SSE9.3 kmh SSE 6.9 mph11.1 kmh 29.78 in1008.5 mb - 0.00 in0.0 mm 0.42 in10.7 mm
08:50 AM 46.7°F8.2°C 46.7°F8.2°C 100% 5.8 mph SSE9.3 kmh SSE 8.1 mph13.0 kmh 29.77 in1008.1 mb - 0.00 in0.0 mm 0.42 in10.7 mm
09:00 AM 46.9°F8.3°C 46.9°F8.3°C 100% 6.9 mph SE11.1 kmh SE 8.1 mph13.0 kmh 29.77 in1008.1 mb - 0.00 in0.0 mm 0.42 in10.7 mm
09:10 AM 47.4°F8.6°C 47.4°F8.6°C 100% 4.6 mph SSE7.4 kmh SSE 8.1 mph13.0 kmh 29.77 in1008.1 mb - 0.00 in0.0 mm 0.42 in10.7 mm
09:20 AM 48.0°F8.9°C 48.0°F8.9°C 100% 6.9 mph SSE11.1 kmh SSE 11.5 mph18.5 kmh 29.77 in1008.1 mb - 0.01 in0.3 mm 0.43 in10.9 mm
09:30 AM 48.9°F9.4°C 48.9°F9.4°C 100% 11.5 mph SSE18.5 kmh SSE 13.8 mph22.2 kmh 29.78 in1008.5 mb - 0.03 in0.8 mm 0.45 in11.4 mm
09:40 AM 49.2°F9.6°C 49.2°F9.6°C 100% 11.5 mph SSE18.5 kmh SSE 16.1 mph25.9 kmh 29.78 in1008.5 mb - 0.00 in0.0 mm 0.45 in11.4 mm
09:50 AM 49.3°F9.6°C 49.3°F9.6°C 100% 10.4 mph S16.7 kmh S 15.0 mph24.1 kmh 29.78 in1008.5 mb - 0.00 in0.0 mm 0.45 in11.4 mm
10:00 AM 49.2°F9.6°C 49.2°F9.6°C 100% 10.4 mph S16.7 kmh S 13.8 mph22.2 kmh 29.78 in1008.5 mb - 0.00 in0.0 mm 0.45 in11.4 mm
10:10 AM 49.2°F9.6°C 49.2°F9.6°C 100% 10.4 mph SSE16.7 kmh SSE 16.1 mph25.9 kmh 29.79 in1008.8 mb - 0.00 in0.0 mm 0.45 in11.4 mm
10:20 AM 49.3°F9.6°C 49.3°F9.6°C 100% 10.4 mph S16.7 kmh S 13.8 mph22.2 kmh 29.79 in1008.8 mb - 0.00 in0.0 mm 0.45 in11.4 mm
10:30 AM 49.1°F9.5°C 49.1°F9.5°C 100% 10.4 mph S16.7 kmh S 12.7 mph20.4 kmh 29.79 in1008.8 mb - 0.00 in0.0 mm 0.45 in11.4 mm
10:40 AM 49.0°F9.4°C 49.0°F9.4°C 100% 10.4 mph SSE16.7 kmh SSE 16.1 mph25.9 kmh 29.79 in1008.8 mb - 0.00 in0.0 mm 0.45 in11.4 mm
10:50 AM 49.0°F9.4°C 49.0°F9.4°C 100% 9.2 mph SSE14.8 kmh SSE 18.4 mph29.6 kmh 29.80 in1009.1 mb - 0.00 in0.0 mm 0.45 in11.4 mm
11:00 AM 48.9°F9.4°C 48.9°F9.4°C 100% 9.2 mph SSE14.8 kmh SSE 13.8 mph22.2 kmh 29.80 in1009.1 mb - 0.00 in0.0 mm 0.45 in11.4 mm
11:10 AM 48.9°F9.4°C 48.9°F9.4°C 100% 8.1 mph SSE13.0 kmh SSE 13.8 mph22.2 kmh 29.80 in1009.1 mb - 0.00 in0.0 mm 0.45 in11.4 mm
11:20 AM 48.8°F9.3°C 48.8°F9.3°C 100% 9.2 mph SSE14.8 kmh SSE 13.8 mph22.2 kmh 29.80 in1009.1 mb - 0.00 in0.0 mm 0.45 in11.4 mm
11:30 AM 48.8°F9.3°C 48.5°F9.2°C 99% 8.1 mph SSE13.0 kmh SSE 12.7 mph20.4 kmh 29.80 in1009.1 mb - 0.00 in0.0 mm 0.45 in11.4 mm
11:40 AM 48.8°F9.3°C 48.5°F9.2°C 99% 8.1 mph SSE13.0 kmh SSE 11.5 mph18.5 kmh 29.80 in1009.1 mb - 0.00 in0.0 mm 0.45 in11.4 mm
11:50 AM 48.7°F9.3°C 48.4°F9.1°C 99% 9.2 mph SE14.8 kmh SE 16.1 mph25.9 kmh 29.80 in1009.1 mb - 0.00 in0.0 mm 0.45 in11.4 mm
12:00 PM 48.6°F9.2°C 48.3°F9.1°C 99% 10.4 mph SSE16.7 kmh SSE 13.8 mph22.2 kmh 29.80 in1009.1 mb - 0.00 in0.0 mm 0.45 in11.4 mm
12:10 PM 48.5°F9.2°C 48.2°F9.0°C 99% 10.4 mph S16.7 kmh S 19.6 mph31.5 kmh 29.80 in1009.1 mb - 0.00 in0.0 mm 0.45 in11.4 mm
12:20 PM 48.5°F9.2°C 48.2°F9.0°C 99% 10.4 mph SSE16.7 kmh SSE 13.8 mph22.2 kmh 29.80 in1009.1 mb - 0.00 in0.0 mm 0.45 in11.4 mm
12:30 PM 48.7°F9.3°C 48.4°F9.1°C 99% 6.9 mph S11.1 kmh S 11.5 mph18.5 kmh 29.80 in1009.1 mb - 0.00 in0.0 mm 0.45 in11.4 mm
12:40 PM 48.9°F9.4°C 48.6°F9.2°C 99% 4.6 mph SW7.4 kmh SW 5.8 mph9.3 kmh 29.79 in1008.8 mb - 0.00 in0.0 mm 0.45 in11.4 mm
12:50 PM 48.9°F9.4°C 48.6°F9.2°C 99% 9.2 mph S14.8 kmh S 11.5 mph18.5 kmh 29.80 in1009.1 mb - 0.00 in0.0 mm 0.45 in11.4 mm
01:00 PM 48.7°F9.3°C 48.4°F9.1°C 99% 9.2 mph S14.8 kmh S 11.5 mph18.5 kmh 29.79 in1008.8 mb - 0.00 in0.0 mm 0.45 in11.4 mm
01:10 PM 48.7°F9.3°C 48.4°F9.1°C 99% 6.9 mph S11.1 kmh S 9.2 mph14.8 kmh 29.80 in1009.1 mb - 0.00 in0.0 mm 0.45 in11.4 mm
01:20 PM 49.0°F9.4°C 48.7°F9.3°C 99% 4.6 mph SSW7.4 kmh SSW 8.1 mph13.0 kmh 29.80 in1009.1 mb - 0.00 in0.0 mm 0.45 in11.4 mm
01:30 PM 49.1°F9.5°C 48.8°F9.3°C 99% 4.6 mph SSW7.4 kmh SSW 6.9 mph11.1 kmh 29.80 in1009.1 mb - 0.00 in0.0 mm 0.45 in11.4 mm
01:40 PM 49.1°F9.5°C 48.8°F9.3°C 99% 9.2 mph S14.8 kmh S 11.5 mph18.5 kmh 29.80 in1009.1 mb - 0.00 in0.0 mm 0.45 in11.4 mm
01:50 PM 49.3°F9.6°C 49.0°F9.4°C 99% 4.6 mph S7.4 kmh S 6.9 mph11.1 kmh 29.80 in1009.1 mb - 0.00 in0.0 mm 0.45 in11.4 mm
02:00 PM 49.5°F9.7°C 49.2°F9.6°C 99% 3.5 mph SSW5.6 kmh SSW 8.1 mph13.0 kmh 29.80 in1009.1 mb - 0.00 in0.0 mm 0.45 in11.4 mm
02:10 PM 49.5°F9.7°C 49.2°F9.6°C 99% 4.6 mph S7.4 kmh S 5.8 mph9.3 kmh 29.80 in1009.1 mb - 0.00 in0.0 mm 0.45 in11.4 mm
02:20 PM 49.6°F9.8°C 49.3°F9.6°C 99% 5.8 mph S9.3 kmh S 6.9 mph11.1 kmh 29.80 in1009.1 mb - 0.00 in0.0 mm 0.45 in11.4 mm
02:30 PM 49.7°F9.8°C 49.4°F9.7°C 99% 6.9 mph S11.1 kmh S 11.5 mph18.5 kmh 29.80 in1009.1 mb - 0.00 in0.0 mm 0.45 in11.4 mm
02:40 PM 49.6°F9.8°C 49.3°F9.6°C 99% 6.9 mph S11.1 kmh S 8.1 mph13.0 kmh 29.81 in1009.5 mb - 0.00 in0.0 mm 0.45 in11.4 mm
02:50 PM 49.4°F9.7°C 49.1°F9.5°C 99% 3.5 mph SW5.6 kmh SW 5.8 mph9.3 kmh 29.81 in1009.5 mb - 0.00 in0.0 mm 0.45 in11.4 mm
03:00 PM 49.2°F9.6°C 49.0°F9.4°C 99% 4.6 mph SSW7.4 kmh SSW 5.8 mph9.3 kmh 29.81 in1009.5 mb - 0.00 in0.0 mm 0.45 in11.4 mm
03:10 PM 49.1°F9.5°C 48.8°F9.3°C 99% 1.2 mph SSW1.9 kmh SSW 4.6 mph7.4 kmh 29.81 in1009.5 mb - 0.00 in0.0 mm 0.45 in11.4 mm
03:20 PM 49.0°F9.4°C 48.7°F9.3°C 99% 3.5 mph SW5.6 kmh SW 5.8 mph9.3 kmh 29.82 in1009.8 mb - 0.00 in0.0 mm 0.45 in11.4 mm
03:30 PM 48.9°F9.4°C 48.6°F9.2°C 99% 1.2 mph SW1.9 kmh SW 4.6 mph7.4 kmh 29.82 in1009.8 mb - 0.00 in0.0 mm 0.45 in11.4 mm
03:40 PM 48.9°F9.4°C 48.6°F9.2°C 99% 1.2 mph W1.9 kmh W 2.3 mph3.7 kmh 29.82 in1009.8 mb - 0.00 in0.0 mm 0.45 in11.4 mm
03:50 PM 48.8°F9.3°C 48.5°F9.2°C 99% 1.2 mph SSW1.9 kmh SSW 4.6 mph7.4 kmh 29.83 in1010.2 mb - 0.00 in0.0 mm 0.45 in11.4 mm
04:00 PM 48.7°F9.3°C 48.4°F9.1°C 99% 2.3 mph SSW3.7 kmh SSW 4.6 mph7.4 kmh 29.83 in1010.2 mb - 0.00 in0.0 mm 0.45 in11.4 mm
04:10 PM 48.6°F9.2°C 48.3°F9.1°C 99% 2.3 mph SW3.7 kmh SW 2.3 mph3.7 kmh 29.83 in1010.2 mb - 0.00 in0.0 mm 0.45 in11.4 mm
04:20 PM 48.5°F9.2°C 48.2°F9.0°C 99% 2.3 mph SW3.7 kmh SW 2.3 mph3.7 kmh 29.84 in1010.5 mb - 0.00 in0.0 mm 0.45 in11.4 mm
04:30 PM 48.1°F8.9°C 47.8°F8.8°C 99% 2.3 mph SSW3.7 kmh SSW 2.3 mph3.7 kmh 29.84 in1010.5 mb - 0.00 in0.0 mm 0.45 in11.4 mm
04:40 PM 47.6°F8.7°C 47.3°F8.5°C 99% 1.2 mph SSW1.9 kmh SSW 2.3 mph3.7 kmh 29.84 in1010.5 mb - 0.00 in0.0 mm 0.45 in11.4 mm
04:50 PM 47.1°F8.4°C 46.8°F8.2°C 99% Calm Calm 2.3 mph3.7 kmh 29.85 in1010.8 mb - 0.00 in0.0 mm 0.45 in11.4 mm
05:00 PM 46.6°F8.1°C 46.4°F8.0°C 99% Calm Calm -- 29.85 in1010.8 mb - 0.00 in0.0 mm 0.45 in11.4 mm
05:10 PM 46.3°F7.9°C 46.0°F7.8°C 99% 1.2 mph SSW1.9 kmh SSW 2.3 mph3.7 kmh 29.85 in1010.8 mb - 0.00 in0.0 mm 0.45 in11.4 mm
05:20 PM 45.8°F7.7°C 45.6°F7.6°C 99% Calm Calm 2.3 mph3.7 kmh 29.86 in1011.2 mb - 0.00 in0.0 mm 0.45 in11.4 mm
05:30 PM 45.6°F7.6°C 45.3°F7.4°C 99% Calm Calm -- 29.86 in1011.2 mb - 0.00 in0.0 mm 0.45 in11.4 mm
05:40 PM 45.3°F7.4°C 45.0°F7.2°C 99% Calm Calm -- 29.87 in1011.5 mb - 0.00 in0.0 mm 0.45 in11.4 mm
05:50 PM 45.0°F7.2°C 44.7°F7.1°C 99% Calm Calm -- 29.87 in1011.5 mb - 0.00 in0.0 mm 0.45 in11.4 mm
06:00 PM 44.7°F7.1°C 44.4°F6.9°C 99% Calm Calm -- 29.88 in1011.9 mb - 0.00 in0.0 mm 0.45 in11.4 mm
06:10 PM 44.6°F7.0°C 44.3°F6.8°C 99% Calm Calm -- 29.88 in1011.9 mb - 0.00 in0.0 mm 0.45 in11.4 mm
06:20 PM 44.4°F6.9°C 44.1°F6.7°C 99% Calm Calm -- 29.88 in1011.9 mb - 0.00 in0.0 mm 0.45 in11.4 mm
06:30 PM 44.3°F6.8°C 44.0°F6.7°C 99% Calm Calm -- 29.89 in1012.2 mb - 0.00 in0.0 mm 0.45 in11.4 mm
06:40 PM 44.1°F6.7°C 43.8°F6.6°C 99% Calm Calm -- 29.89 in1012.2 mb - 0.00 in0.0 mm 0.45 in11.4 mm
06:50 PM 44.2°F6.8°C 43.9°F6.6°C 99% Calm Calm -- 29.90 in1012.5 mb - 0.00 in0.0 mm 0.45 in11.4 mm
07:00 PM 43.6°F6.4°C 43.3°F6.3°C 99% Calm Calm -- 29.90 in1012.5 mb - 0.00 in0.0 mm 0.45 in11.4 mm
07:10 PM 43.9°F6.6°C 43.6°F6.4°C 99% Calm Calm -- 29.90 in1012.5 mb - 0.00 in0.0 mm 0.45 in11.4 mm
07:20 PM 43.8°F6.6°C 43.5°F6.4°C 99% Calm Calm -- 29.91 in1012.9 mb - 0.00 in0.0 mm 0.45 in11.4 mm
07:30 PM 43.9°F6.6°C 43.6°F6.4°C 99% Calm Calm -- 29.91 in1012.9 mb - 0.00 in0.0 mm 0.45 in11.4 mm
07:40 PM 43.7°F6.5°C 43.4°F6.3°C 99% Calm Calm -- 29.91 in1012.9 mb - 0.00 in0.0 mm 0.45 in11.4 mm
07:50 PM 43.2°F6.2°C 42.9°F6.1°C 99% Calm Calm -- 29.91 in1012.9 mb - 0.00 in0.0 mm 0.45 in11.4 mm
08:00 PM 43.2°F6.2°C 42.9°F6.1°C 99% Calm Calm -- 29.91 in1012.9 mb - 0.00 in0.0 mm 0.45 in11.4 mm
08:10 PM 41.9°F5.5°C 41.6°F5.3°C 99% Calm Calm -- 29.92 in1013.2 mb - 0.00 in0.0 mm 0.45 in11.4 mm
08:20 PM 41.1°F5.1°C 40.8°F4.9°C 99% Calm Calm -- 29.92 in1013.2 mb - 0.00 in0.0 mm 0.45 in11.4 mm
08:30 PM 40.6°F4.8°C 40.4°F4.7°C 99% Calm Calm -- 29.93 in1013.5 mb - 0.00 in0.0 mm 0.45 in11.4 mm
08:40 PM 41.0°F5.0°C 40.7°F4.8°C 99% Calm Calm -- 29.93 in1013.5 mb - 0.00 in0.0 mm 0.45 in11.4 mm
08:50 PM 40.8°F4.9°C 40.5°F4.7°C 99% Calm Calm -- 29.93 in1013.5 mb - 0.00 in0.0 mm 0.45 in11.4 mm
09:00 PM 40.8°F4.9°C 40.5°F4.7°C 99% Calm Calm -- 29.93 in1013.5 mb - 0.00 in0.0 mm 0.45 in11.4 mm
09:10 PM 40.6°F4.8°C 40.3°F4.6°C 99% Calm Calm -- 29.93 in1013.5 mb - 0.00 in0.0 mm 0.45 in11.4 mm
09:20 PM 39.2°F4.0°C 38.9°F3.8°C 99% Calm Calm 2.3 mph3.7 kmh 29.93 in1013.5 mb - 0.00 in0.0 mm 0.45 in11.4 mm
09:30 PM 38.9°F3.8°C 38.6°F3.7°C 99% Calm Calm -- 29.93 in1013.5 mb - 0.00 in0.0 mm 0.45 in11.4 mm
09:40 PM 39.0°F3.9°C 38.8°F3.8°C 99% Calm Calm -- 29.93 in1013.5 mb - 0.00 in0.0 mm 0.45 in11.4 mm
09:50 PM 38.8°F3.8°C 38.5°F3.6°C 99% Calm Calm -- 29.94 in1013.9 mb - 0.00 in0.0 mm 0.45 in11.4 mm
10:00 PM 39.1°F3.9°C 38.9°F3.8°C 99% Calm Calm -- 29.94 in1013.9 mb - 0.00 in0.0 mm 0.45 in11.4 mm
10:10 PM 38.7°F3.7°C 38.4°F3.6°C 99% Calm Calm -- 29.94 in1013.9 mb - 0.00 in0.0 mm 0.45 in11.4 mm
10:20 PM 38.0°F3.3°C 37.7°F3.2°C 99% Calm Calm -- 29.94 in1013.9 mb - 0.00 in0.0 mm 0.45 in11.4 mm
10:30 PM 37.6°F3.1°C 37.3°F2.9°C 99% Calm Calm -- 29.94 in1013.9 mb - 0.00 in0.0 mm 0.45 in11.4 mm
10:40 PM 37.7°F3.2°C 37.4°F3.0°C 99% Calm Calm -- 29.95 in1014.2 mb - 0.00 in0.0 mm 0.45 in11.4 mm
10:50 PM 37.4°F3.0°C 37.1°F2.8°C 99% Calm Calm -- 29.95 in1014.2 mb - 0.00 in0.0 mm 0.45 in11.4 mm
11:00 PM 37.5°F3.1°C 37.2°F2.9°C 99% Calm Calm -- 29.95 in1014.2 mb - 0.00 in0.0 mm 0.45 in11.4 mm
11:10 PM 37.8°F3.2°C 37.5°F3.1°C 99% Calm Calm -- 29.96 in1014.6 mb - 0.00 in0.0 mm 0.45 in11.4 mm
11:20 PM 37.9°F3.3°C 37.7°F3.2°C 99% Calm Calm -- 29.96 in1014.6 mb - 0.00 in0.0 mm 0.45 in11.4 mm
11:30 PM 38.5°F3.6°C 38.2°F3.4°C 99% Calm Calm -- 29.97 in1014.9 mb - 0.00 in0.0 mm 0.45 in11.4 mm
11:40 PM 38.4°F3.6°C 38.1°F3.4°C 99% Calm Calm -- 29.97 in1014.9 mb - 0.00 in0.0 mm 0.45 in11.4 mm
11:50 PM 38.1°F3.4°C 37.8°F3.2°C 99% Calm Calm -- 29.97 in1014.9 mb - 0.00 in0.0 mm 0.45 in11.4 mm